Time;durP1;ratioP1;P1;durP2;ratioP2;P2;SDS_P1;SDS_P2;PMS_P1;PMS_P2;Temp;Humidity;BMP_temperature;BMP_pressure;BME280_temperature;BME280_humidity;BME280_pressure;Samples;Min_cycle;Max_cycle;Signal;HPM_P1;HPM_P2
2021/01/17 00:00:52;;;;;;;9.00;3.80;;;;;;;-1.95;44.82;98694.53;4871682;29;20047;-75
2021/01/17 00:03:18;;;;;;;5.17;3.27;;;;;;;-1.97;45.39;98697.31;4880749;29;20053;-76
2021/01/17 00:05:44;;;;;;;5.10;3.33;;;;;;;-1.99;45.09;98693.28;4879266;29;20037;-76
2021/01/17 00:08:11;;;;;;;11.97;4.07;;;;;;;-2.04;45.15;98701.75;4879980;29;20040;-77
2021/01/17 00:10:37;;;;;;;5.23;3.10;;;;;;;-2.04;45.09;98709.63;4880306;29;20531;-76
2021/01/17 00:13:04;;;;;;;5.77;3.27;;;;;;;-2.04;45.39;98711.44;4875879;29;20432;-75
2021/01/17 00:15:30;;;;;;;11.70;3.30;;;;;;;-2.05;45.79;98713.28;4862822;29;20559;-76
2021/01/17 00:17:56;;;;;;;8.00;3.33;;;;;;;-2.07;44.59;98725.75;4878692;29;20036;-77
2021/01/17 00:21:22;;;;;;;7.17;3.07;;;;;;;-2.06;44.44;98726.56;4880711;29;20142;-82
2021/01/17 00:24:05;;;;;;;6.00;2.83;;;;;;;-2.14;45.27;98730.97;4880367;29;20045;-80
2021/01/17 00:26:35;;;;;;;10.80;3.87;;;;;;;-2.19;45.23;98732.63;4878996;29;20029;-74
2021/01/17 00:29:01;;;;;;;6.23;3.17;;;;;;;-2.24;45.31;98730.59;4879850;29;20109;-74
2021/01/17 00:31:26;;;;;;;6.93;3.40;;;;;;;-2.27;45.20;98739.66;4879565;29;20061;-74
2021/01/17 00:33:51;;;;;;;7.77;3.90;;;;;;;-2.28;45.36;98735.41;4880019;29;20040;-75
2021/01/17 00:36:17;;;;;;;14.20;3.07;;;;;;;-2.30;45.03;98734.81;4879790;29;20073;-75
2021/01/17 00:38:42;;;;;;;7.83;3.33;;;;;;;-2.29;44.74;98738.25;4878875;29;20123;-77
2021/01/17 00:41:08;;;;;;;6.83;2.97;;;;;;;-2.31;44.65;98753.34;4856903;29;20033;-79
2021/01/17 00:43:33;;;;;;;8.13;3.80;;;;;;;-2.32;45.03;98751.72;4877402;29;20108;-79
2021/01/17 00:46:01;;;;;;;5.57;3.33;;;;;;;-2.31;45.18;98753.34;4878176;29;20056;-78
2021/01/17 00:48:27;;;;;;;4.63;2.35;;;;;;;-2.36;44.43;98753.16;4878269;29;20049;-76
2021/01/17 00:50:53;;;;;;;6.50;3.40;;;;;;;-2.35;44.28;98757.38;4878370;29;20041;-76
2021/01/17 00:53:18;;;;;;;7.77;2.97;;;;;;;-2.37;44.92;98762.78;4877021;29;20392;-78
2021/01/17 00:55:44;;;;;;;8.20;3.87;;;;;;;-2.39;44.99;98766.63;4878402;29;20089;-79
2021/01/17 00:58:09;;;;;;;5.67;3.40;;;;;;;-2.39;44.63;98769.25;4879977;29;20045;-76
2021/01/17 01:00:34;;;;;;;4.47;2.77;;;;;;;-2.41;44.74;98769.44;4875556;29;20093;-76
2021/01/17 01:03:00;;;;;;;7.60;3.70;;;;;;;-2.39;44.85;98771.84;4873489;29;20523;-76
2021/01/17 01:05:25;;;;;;;6.53;2.83;;;;;;;-2.42;44.48;98765.22;4877858;29;20044;-77
2021/01/17 01:07:51;;;;;;;6.77;2.83;;;;;;;-2.40;45.02;98773.69;4877844;29;20088;-77
2021/01/17 01:10:16;;;;;;;5.03;3.33;;;;;;;-2.47;44.64;98765.00;4875779;29;20051;-75
2021/01/17 01:12:42;;;;;;;7.87;3.00;;;;;;;-2.44;44.29;98770.66;4877884;29;20048;-76
2021/01/17 01:15:08;;;;;;;6.03;3.30;;;;;;;-2.49;44.81;98757.34;4878202;29;20400;-76
2021/01/17 01:17:33;;;;;;;7.93;3.37;;;;;;;-2.51;44.89;98759.34;4875965;29;20052;-77
2021/01/17 01:19:59;;;;;;;6.07;3.00;;;;;;;-2.51;44.48;98769.03;4879521;29;20033;-81
2021/01/17 01:22:24;;;;;;;6.07;2.77;;;;;;;-2.53;44.65;98766.59;4878194;29;20093;-79
2021/01/17 01:24:49;;;;;;;8.27;3.43;;;;;;;-2.54;45.49;98772.81;4861489;29;20495;-79
2021/01/17 01:27:15;;;;;;;6.13;3.13;;;;;;;-2.54;44.61;98764.19;4870264;29;20418;-78
2021/01/17 01:29:40;;;;;;;4.73;2.80;;;;;;;-2.61;45.07;98757.13;4868252;29;20121;-75
2021/01/17 01:32:06;;;;;;;7.97;3.67;;;;;;;-2.59;45.58;98765.59;4878535;29;20647;-79
2021/01/17 01:35:21;;;;;;;8.10;3.90;;;;;;;-2.58;45.74;98751.47;4874749;29;20472;-82
2021/01/17 01:37:50;;;;;;;5.13;2.70;;;;;;;-2.62;45.30;98770.41;4874648;29;20056;-77
2021/01/17 01:40:16;;;;;;;6.00;3.20;;;;;;;-2.64;45.30;98767.97;4877326;29;20029;-77
2021/01/17 01:42:42;;;;;;;6.70;2.77;;;;;;;-2.62;45.23;98778.25;4876682;29;20036;-78
2021/01/17 01:45:09;;;;;;;9.47;3.40;;;;;;;-2.67;45.66;98776.22;4876252;29;20056;-78
2021/01/17 01:47:35;;;;;;;5.47;2.40;;;;;;;-2.64;45.17;98775.81;4873328;29;20032;-78
2021/01/17 01:50:02;;;;;;;6.10;3.37;;;;;;;-2.63;44.96;98774.03;4877510;29;20624;-78
2021/01/17 01:52:27;;;;;;;6.37;2.93;;;;;;;-2.63;45.14;98780.06;4877476;29;20037;-78
2021/01/17 01:54:52;;;;;;;4.60;2.93;;;;;;;-2.62;45.16;98773.03;4868158;29;20033;-78
2021/01/17 01:57:18;;;;;;;6.27;3.67;;;;;;;-2.61;45.41;98785.13;4877452;29;20033;-78
2021/01/17 01:59:43;;;;;;;6.70;3.63;;;;;;;-2.60;45.24;98786.72;4862927;29;20033;-78
2021/01/17 02:02:09;;;;;;;9.80;4.10;;;;;;;-2.62;44.59;98775.66;4872240;29;20105;-78
2021/01/17 02:04:38;;;;;;;7.87;3.60;;;;;;;-2.64;45.16;98786.28;4876799;29;20028;-78
2021/01/17 02:07:13;;;;;;;5.00;3.57;;;;;;;-2.65;44.76;98784.69;4877215;29;20191;-78
2021/01/17 02:09:38;;;;;;;8.73;3.40;;;;;;;-2.71;45.22;98790.72;4876805;29;20048;-78
2021/01/17 02:12:04;;;;;;;5.63;3.20;;;;;;;-2.71;45.39;98795.13;4878455;29;20049;-81
2021/01/17 02:14:35;;;;;;;7.93;3.10;;;;;;;-2.76;45.00;98793.91;4877916;29;20041;-78
2021/01/17 02:17:04;;;;;;;6.17;3.10;;;;;;;-2.74;45.63;98797.13;4876128;29;20089;-77
2021/01/17 02:19:35;;;;;;;5.53;3.30;;;;;;;-2.76;45.58;98793.09;4876619;29;20426;-78
2021/01/17 02:22:01;;;;;;;9.37;3.87;;;;;;;-2.76;45.39;98804.38;4860774;29;20064;-77
2021/01/17 02:24:49;;;;;;;7.27;3.47;;;;;;;-2.80;45.19;98794.50;4865847;29;20069;-77
2021/01/17 02:27:16;;;;;;;6.05;2.75;;;;;;;-2.82;44.77;98801.72;4868878;29;20049;-77
2021/01/17 02:29:45;;;;;;;9.47;3.43;;;;;;;-2.86;45.04;98793.47;4861986;29;20097;-81
2021/01/17 02:32:13;;;;;;;9.13;3.10;;;;;;;-2.90;45.06;98800.09;4868753;29;20043;-79
2021/01/17 02:34:40;;;;;;;6.50;3.10;;;;;;;-2.90;45.70;98802.72;4876633;29;20104;-79
2021/01/17 02:37:28;;;;;;;8.77;3.57;;;;;;;-2.91;45.38;98791.41;4876915;29;20072;-79
2021/01/17 02:39:59;;;;;;;7.93;3.53;;;;;;;-2.92;45.37;98794.25;4858610;29;20049;-79
2021/01/17 02:42:25;;;;;;;8.73;3.17;;;;;;;-2.95;45.51;98792.03;4858642;29;20041;-74
2021/01/17 02:44:51;;;;;;;6.50;3.57;;;;;;;-2.97;45.81;98799.25;4863920;29;20056;-76
2021/01/17 02:47:17;;;;;;;7.83;3.60;;;;;;;-2.99;45.99;98793.41;4890674;29;20036;-77
2021/01/17 02:49:42;;;;;;;4.87;3.10;;;;;;;-3.00;45.70;98783.94;4879858;29;20037;-76
2021/01/17 02:52:08;;;;;;;4.83;3.20;;;;;;;-3.05;46.02;98787.16;4896134;29;20387;-76
2021/01/17 02:54:35;;;;;;;5.47;4.07;;;;;;;-3.09;46.16;98784.09;4880701;29;20041;-77
2021/01/17 02:57:11;;;;;;;6.68;4.18;;;;;;;-3.07;46.00;98797.00;4860844;29;20037;-75
2021/01/17 02:59:59;;;;;;;9.23;4.30;;;;;;;-3.06;46.41;98804.63;4864911;29;20037;-78
2021/01/17 03:02:42;;;;;;;7.63;3.50;;;;;;;-3.03;46.36;98808.66;4879222;29;20040;-77
2021/01/17 03:05:13;;;;;;;5.03;3.50;;;;;;;-3.03;46.27;98813.09;4895614;29;20032;-76
2021/01/17 03:07:40;;;;;;;9.27;3.67;;;;;;;-3.03;45.92;98805.25;4877150;29;20143;-76
2021/01/17 03:10:08;;;;;;;10.97;4.10;;;;;;;-3.02;46.07;98801.66;4878980;29;20029;-77
2021/01/17 03:12:33;;;;;;;6.03;3.42;;;;;;;-3.04;45.80;98801.03;4879287;29;20033;-77
2021/01/17 03:15:02;;;;;;;9.47;4.43;;;;;;;-3.05;46.18;98802.84;4877613;29;20487;-78
2021/01/17 03:17:27;;;;;;;6.05;2.97;;;;;;;-3.06;46.04;98809.06;4878470;29;20036;-78
2021/01/17 03:19:53;;;;;;;5.60;3.17;;;;;;;-3.07;46.04;98813.47;4879436;29;20033;-78
2021/01/17 03:22:18;;;;;;;7.87;3.87;;;;;;;-3.10;46.00;98811.25;4876501;29;20035;-78
2021/01/17 03:24:43;;;;;;;6.00;3.43;;;;;;;-3.12;46.23;98810.63;4872711;29;20234;-77
2021/01/17 03:27:09;;;;;;;7.53;3.70;;;;;;;-3.13;45.94;98816.06;4878948;29;20031;-78
2021/01/17 03:29:34;;;;;;;6.40;2.97;;;;;;;-3.14;46.50;98817.06;4896171;29;20111;-78
2021/01/17 03:32:00;;;;;;;5.70;3.53;;;;;;;-3.13;46.66;98816.88;4896064;29;20403;-78
2021/01/17 03:34:25;;;;;;;8.00;3.67;;;;;;;-3.16;46.24;98819.06;4878563;29;20025;-77
2021/01/17 03:36:51;;;;;;;8.07;4.00;;;;;;;-3.16;46.11;98814.66;4895207;29;20055;-75
2021/01/17 03:39:16;;;;;;;6.20;4.00;;;;;;;-3.17;46.43;98818.25;4892832;29;20028;-75
2021/01/17 03:41:41;;;;;;;8.77;3.37;;;;;;;-3.19;46.77;98817.63;4896229;29;20029;-76
2021/01/17 03:44:07;;;;;;;7.80;3.53;;;;;;;-3.17;46.91;98822.66;4895276;29;20028;-75
2021/01/17 03:46:32;;;;;;;6.13;3.47;;;;;;;-3.18;46.72;98819.25;4878412;29;20041;-74
2021/01/17 03:48:58;;;;;;;6.77;3.30;;;;;;;-3.19;46.16;98817.63;4878296;29;20132;-74
2021/01/17 03:51:24;;;;;;;7.10;3.20;;;;;;;-3.23;46.32;98822.44;4895188;29;20120;-73
2021/01/17 03:53:49;;;;;;;6.73;3.33;;;;;;;-3.24;46.49;98828.66;4865202;29;20040;-76
2021/01/17 03:56:14;;;;;;;5.77;3.20;;;;;;;-3.23;46.14;98824.25;4879100;29;20040;-75
2021/01/17 03:58:40;;;;;;;5.93;3.00;;;;;;;-3.23;46.34;98824.25;4895963;29;20041;-77
2021/01/17 04:01:05;;;;;;;4.73;2.80;;;;;;;-3.27;46.25;98821.22;4882818;29;20032;-76
2021/01/17 04:03:31;;;;;;;6.27;3.97;;;;;;;-3.31;46.41;98817.34;4883108;29;20035;-78
2021/01/17 04:05:56;;;;;;;5.43;3.27;;;;;;;-3.30;46.84;98826.03;4884123;29;20044;-77
2021/01/17 04:08:22;;;;;;;8.90;3.70;;;;;;;-3.35;45.95;98829.22;4868308;29;20029;-77
2021/01/17 04:10:47;;;;;;;9.20;3.53;;;;;;;-3.37;46.42;98823.34;4881802;29;20040;-75
2021/01/17 04:13:13;;;;;;;7.03;3.27;;;;;;;-3.38;46.10;98827.00;4878486;29;20056;-75
2021/01/17 04:15:38;;;;;;;9.27;3.90;;;;;;;-3.39;46.09;98834.00;4878635;29;20041;-76
2021/01/17 04:18:04;;;;;;;5.63;2.97;;;;;;;-3.39;45.98;98839.25;4877789;29;20048;-76
2021/01/17 04:20:29;;;;;;;6.80;3.17;;;;;;;-3.39;46.49;98834.00;4876905;29;20036;-76
2021/01/17 04:23:01;;;;;;;6.30;3.07;;;;;;;-3.40;46.50;98835.00;4873648;29;20047;-75
2021/01/17 04:25:27;;;;;;;8.97;3.83;;;;;;;-3.37;46.35;98841.66;4878299;29;20561;-75
2021/01/17 04:27:52;;;;;;;8.93;3.50;;;;;;;-3.36;46.50;98850.31;4896437;29;20033;-75
2021/01/17 04:30:18;;;;;;;9.13;3.67;;;;;;;-3.35;46.13;98854.56;4894879;29;20033;-76
2021/01/17 04:32:44;;;;;;;5.97;3.23;;;;;;;-3.34;46.37;98848.31;4884285;29;20043;-75
2021/01/17 04:35:09;;;;;;;7.13;3.17;;;;;;;-3.32;46.23;98844.53;4898460;29;20042;-76
2021/01/17 04:37:35;;;;;;;7.37;3.17;;;;;;;-3.31;46.22;98842.72;4867714;29;20045;-75
2021/01/17 04:40:00;;;;;;;6.10;2.77;;;;;;;-3.34;46.41;98850.91;4867873;29;20119;-76
2021/01/17 04:42:30;;;;;;;9.13;3.80;;;;;;;-3.34;45.46;98861.38;4875135;29;20032;-76
2021/01/17 04:45:10;;;;;;;5.23;3.17;;;;;;;-3.36;46.16;98860.78;4878480;29;20076;-76
2021/01/17 04:47:37;;;;;;;7.63;3.13;;;;;;;-3.38;45.71;98864.38;4878334;29;20489;-77
2021/01/17 04:50:08;;;;;;;5.10;2.67;;;;;;;-3.39;46.25;98861.97;4862713;29;20396;-77
2021/01/17 04:52:40;;;;;;;3.00;2.53;;;;;;;-3.40;45.53;98855.91;4871202;29;20033;-79
2021/01/17 04:55:09;;;;;;;5.53;3.20;;;;;;;-3.45;45.30;98857.50;4859696;29;20148;-78
2021/01/17 04:58:02;;;;;;;7.00;3.27;;;;;;;-3.48;45.87;98855.25;4873037;29;20057;-77
2021/01/17 05:00:30;;;;;;;8.37;3.17;;;;;;;-3.48;45.89;98863.09;4862411;29;20049;-79
2021/01/17 05:03:17;;;;;;;4.40;2.92;;;;;;;-3.52;46.00;98857.44;4878105;29;20057;-78
2021/01/17 05:06:10;;;;;;;7.13;3.23;;;;;;;-3.55;46.27;98861.25;4873601;29;20064;-79
2021/01/17 05:08:43;;;;;;;6.70;2.90;;;;;;;-3.60;46.02;98855.78;4869724;29;20121;-78
2021/01/17 05:11:30;;;;;;;6.47;3.20;;;;;;;-3.59;45.94;98869.63;4874528;29;20109;-79
2021/01/17 05:14:27;;;;;;;11.73;3.97;;;;;;;-3.59;46.08;98859.19;4878835;29;20039;-78
2021/01/17 05:16:56;;;;;;;8.45;4.00;;;;;;;-3.57;46.67;98867.66;4862255;29;20033;-78
2021/01/17 05:19:22;;;;;;;4.87;2.97;;;;;;;-3.58;45.94;98868.66;4877557;29;20411;-77
2021/01/17 05:21:49;;;;;;;5.20;2.40;;;;;;;-3.58;46.21;98874.66;4874901;29;20035;-79
2021/01/17 05:24:16;;;;;;;8.53;3.73;;;;;;;-3.60;46.56;98875.84;4868222;29;20030;-77
2021/01/17 05:26:50;;;;;;;5.57;3.07;;;;;;;-3.60;46.77;98866.22;4874899;29;20415;-77
2021/01/17 05:29:19;;;;;;;8.20;3.77;;;;;;;-3.61;46.42;98879.50;4877487;29;20033;-78
2021/01/17 05:31:48;;;;;;;6.75;2.97;;;;;;;-3.64;46.14;98878.03;4878087;29;20025;-77
2021/01/17 05:34:16;;;;;;;7.33;3.80;;;;;;;-3.66;46.40;98884.47;4878491;29;20975;-78
2021/01/17 05:36:41;;;;;;;7.05;3.97;;;;;;;-3.68;46.50;98878.63;4868196;29;20067;-77
2021/01/17 05:39:07;;;;;;;5.73;3.63;;;;;;;-3.71;46.42;98888.44;4874619;29;20068;-76
2021/01/17 05:41:32;;;;;;;13.13;4.10;;;;;;;-3.72;46.56;98888.66;4877453;29;20410;-78
2021/01/17 05:43:57;;;;;;;11.00;3.40;;;;;;;-3.73;46.35;98885.22;4877456;29;20033;-77
2021/01/17 05:46:23;;;;;;;7.87;3.40;;;;;;;-3.72;46.39;98886.03;4877272;29;20051;-77
2021/01/17 05:48:48;;;;;;;9.50;4.67;;;;;;;-3.74;45.98;98886.19;4877272;29;20068;-76
2021/01/17 05:51:25;;;;;;;9.90;3.50;;;;;;;-3.75;46.91;98878.56;4877193;29;20045;-78
2021/01/17 05:53:51;;;;;;;7.33;3.70;;;;;;;-3.79;46.54;98877.31;4876133;29;20047;-77
2021/01/17 05:56:17;;;;;;;6.30;3.23;;;;;;;-3.80;47.40;98883.53;4875502;29;20037;-78
2021/01/17 05:58:44;;;;;;;5.83;3.60;;;;;;;-3.81;47.36;98890.53;4861576;29;20483;-77
2021/01/17 06:01:19;;;;;;;7.33;3.70;;;;;;;-3.84;46.71;98890.09;4876800;29;20064;-77
2021/01/17 06:03:52;;;;;;;10.80;3.90;;;;;;;-3.86;47.06;98893.75;4876876;29;20041;-77
2021/01/17 06:06:25;;;;;;;6.30;3.37;;;;;;;-3.89;46.87;98899.31;4876832;29;20039;-76
2021/01/17 06:08:53;;;;;;;10.53;3.87;;;;;;;-3.93;47.71;98897.25;4860160;29;20037;-75
2021/01/17 06:11:20;;;;;;;10.30;3.88;;;;;;;-3.92;48.24;98897.09;4878246;29;20418;-78
2021/01/17 06:13:53;;;;;;;6.10;3.43;;;;;;;-3.92;47.71;98899.72;4862758;29;20056;-76
2021/01/17 06:16:37;;;;;;;7.60;3.10;;;;;;;-3.95;47.57;98902.69;4868762;29;20025;-76
2021/01/17 06:19:06;;;;;;;6.83;3.73;;;;;;;-3.92;48.26;98904.94;4878351;29;20039;-77
2021/01/17 06:21:32;;;;;;;8.20;3.43;;;;;;;-3.92;47.55;98904.09;4876653;29;20033;-78
2021/01/17 06:24:09;;;;;;;10.50;4.40;;;;;;;-3.92;47.79;98904.94;4872817;29;20094;-80
2021/01/17 06:26:37;;;;;;;7.67;3.90;;;;;;;-3.86;48.26;98909.41;4871651;29;20059;-78
2021/01/17 06:29:05;;;;;;;8.65;4.28;;;;;;;-3.81;48.29;98913.28;4861126;29;20037;-78
2021/01/17 06:31:32;;;;;;;21.33;7.60;;;;;;;-3.80;47.94;98915.69;4876267;29;20040;-80
2021/01/17 06:34:12;;;;;;;10.60;5.17;;;;;;;-3.80;48.25;98922.72;4877434;29;20039;-79
2021/01/17 06:36:44;;;;;;;9.03;4.97;;;;;;;-3.75;48.33;98921.19;4876783;29;20410;-80
2021/01/17 06:39:23;;;;;;;9.30;4.83;;;;;;;-3.72;48.37;98926.03;4877161;29;20033;-77
2021/01/17 06:41:59;;;;;;;10.07;5.40;;;;;;;-3.67;48.09;98928.09;4874781;29;20138;-75
2021/01/17 06:44:30;;;;;;;9.33;4.67;;;;;;;-3.63;48.06;98920.69;4859418;29;20574;-76
2021/01/17 06:46:56;;;;;;;8.67;4.77;;;;;;;-3.59;47.72;98924.53;4868631;29;20080;-77
2021/01/17 06:49:24;;;;;;;6.97;3.87;;;;;;;-3.53;48.23;98926.41;4878473;29;20119;-75
2021/01/17 06:51:51;;;;;;;5.83;4.40;;;;;;;-3.44;48.71;98927.91;4877684;29;20033;-75
2021/01/17 06:54:18;;;;;;;8.87;4.77;;;;;;;-3.35;47.80;98930.41;4878703;29;20035;-74
2021/01/17 06:56:49;;;;;;;11.90;4.95;;;;;;;-3.30;48.48;98928.00;4878380;29;20028;-79
2021/01/17 06:59:38;;;;;;;11.63;5.07;;;;;;;-3.17;48.08;98930.75;4878455;29;20068;-79
2021/01/17 07:02:13;;;;;;;9.20;4.70;;;;;;;-3.03;47.91;98928.22;4869697;29;20129;-78
2021/01/17 07:04:54;;;;;;;12.10;5.40;;;;;;;-3.00;47.12;98922.59;4878856;29;20420;-76
2021/01/17 07:07:45;;;;;;;11.70;5.47;;;;;;;-2.87;47.08;98925.31;4877478;29;20782;-76
2021/01/17 07:10:11;;;;;;;10.57;4.87;;;;;;;-2.79;45.76;98912.06;4873733;29;20044;-74
2021/01/17 07:12:57;;;;;;;7.10;3.13;;;;;;;-2.67;45.67;98922.00;4878254;29;20585;-73
2021/01/17 07:15:31;;;;;;;7.23;4.13;;;;;;;-2.59;45.18;98917.44;4878306;29;20123;-74
2021/01/17 07:18:03;;;;;;;8.47;3.60;;;;;;;-2.47;44.80;98917.69;4878716;29;20521;-76
2021/01/17 07:20:30;;;;;;;7.63;3.93;;;;;;;-2.34;44.87;98930.03;4894833;29;20483;-75
2021/01/17 07:23:00;;;;;;;7.13;3.53;;;;;;;-2.21;43.82;98924.06;4878697;29;20453;-77
2021/01/17 07:25:30;;;;;;;7.70;4.13;;;;;;;-2.11;43.39;98921.88;4893328;29;20545;-76
2021/01/17 07:28:12;;;;;;;8.13;4.23;;;;;;;-2.03;42.65;98917.47;4859956;29;20487;-74
2021/01/17 07:30:51;;;;;;;8.57;3.70;;;;;;;-1.92;42.83;98927.38;4864953;29;20032;-75
2021/01/17 07:33:27;;;;;;;6.35;3.45;;;;;;;-1.86;41.67;98928.41;4889429;29;20036;-77
2021/01/17 07:36:02;;;;;;;10.37;4.33;;;;;;;-1.84;41.93;98931.66;4878854;29;20033;-76
2021/01/17 07:38:30;;;;;;;8.07;3.97;;;;;;;-1.77;41.43;98921.97;4895331;29;20039;-77
2021/01/17 07:40:58;;;;;;;7.25;3.95;;;;;;;-1.80;41.84;98912.69;4878305;29;20036;-76
2021/01/17 07:43:29;;;;;;;11.13;4.33;;;;;;;-1.71;42.20;98915.94;4877991;29;20055;-76
2021/01/17 07:45:57;;;;;;;15.17;5.53;;;;;;;-1.64;40.38;98910.69;4856798;29;646591;-76
2021/01/17 07:48:23;;;;;;;11.07;4.07;;;;;;;-1.59;40.67;98912.72;4864264;29;20053;-77
2021/01/17 07:50:56;;;;;;;12.50;5.70;;;;;;;-1.55;41.21;98911.31;4879498;29;20036;-78
2021/01/17 07:53:34;;;;;;;16.10;5.23;;;;;;;-1.48;40.45;98915.56;4889547;29;20112;-73
2021/01/17 07:56:11;;;;;;;15.93;4.97;;;;;;;-1.46;40.28;98915.38;4875764;29;20032;-73
2021/01/17 07:58:43;;;;;;;16.13;5.33;;;;;;;-1.45;40.38;98917.78;4879259;29;20041;-74
2021/01/17 08:01:30;;;;;;;7.90;3.33;;;;;;;-1.39;39.67;98924.06;4891881;29;20040;-76
2021/01/17 08:04:02;;;;;;;8.73;3.67;;;;;;;-1.35;39.83;98914.75;4880808;29;20025;-75
2021/01/17 08:06:55;;;;;;;7.40;4.27;;;;;;;-1.38;39.03;98920.44;4867581;29;20490;-76
2021/01/17 08:09:46;;;;;;;8.83;3.87;;;;;;;-1.34;39.34;98924.25;4856117;29;20133;-76
2021/01/17 08:12:28;;;;;;;7.77;3.37;;;;;;;-1.43;39.32;98920.19;4873853;29;20121;-76
2021/01/17 08:15:10;;;;;;;5.87;3.33;;;;;;;-1.42;39.45;98919.19;4883132;29;20033;-78
2021/01/17 08:17:36;;;;;;;11.50;4.40;;;;;;;-1.43;39.41;98916.78;4882733;29;20123;-78
2021/01/17 08:20:04;;;;;;;6.03;3.20;;;;;;;-1.39;39.05;98904.88;4891351;29;20495;-78
2021/01/17 08:22:29;;;;;;;7.13;3.23;;;;;;;-1.35;39.49;98917.38;4882980;29;20508;-77
2021/01/17 08:25:20;;;;;;;6.80;3.30;;;;;;;-1.30;39.54;98917.56;4872807;29;20041;-80
2021/01/17 08:27:47;;;;;;;6.50;3.63;;;;;;;-1.24;39.16;98915.97;4882912;29;20036;-78
2021/01/17 08:30:15;;;;;;;6.13;4.40;;;;;;;-1.17;39.41;98918.63;4867030;29;20032;-77
2021/01/17 08:32:43;;;;;;;8.68;4.85;;;;;;;-1.15;39.47;98924.44;4882283;29;20530;-77
2021/01/17 08:35:18;;;;;;;7.30;5.70;;;;;;;-1.17;39.81;98919.41;4882094;29;20040;-78
2021/01/17 08:37:44;;;;;;;11.37;6.23;;;;;;;-1.12;39.16;98924.06;4880667;29;20028;-78
2021/01/17 08:40:14;;;;;;;5.83;3.90;;;;;;;-1.08;39.15;98925.25;4881902;29;20035;-79
2021/01/17 08:42:49;;;;;;;13.00;4.40;;;;;;;-1.08;39.01;98922.63;4882306;29;20041;-79
2021/01/17 08:45:21;;;;;;;8.77;5.37;;;;;;;-1.06;38.85;98917.16;4881998;29;20048;-77
2021/01/17 08:48:09;;;;;;;13.27;5.87;;;;;;;-1.00;39.22;98924.22;4884372;29;20037;-80
2021/01/17 08:50:35;;;;;;;8.30;4.15;;;;;;;-0.93;38.75;98919.78;4894917;29;20061;-80
2021/01/17 08:53:22;;;;;;;6.03;3.70;;;;;;;-0.81;39.11;98919.97;4885686;29;20072;-79
2021/01/17 08:55:49;;;;;;;9.73;3.97;;;;;;;-0.79;38.49;98917.13;4895709;29;20033;-79
2021/01/17 08:58:36;;;;;;;7.23;3.50;;;;;;;-0.73;39.25;98913.69;4890480;29;20064;-77
2021/01/17 09:01:04;;;;;;;4.70;3.40;;;;;;;-0.68;37.87;98913.91;4887919;29;20028;-79
2021/01/17 09:03:42;;;;;;;7.28;4.05;;;;;;;-0.67;38.69;98912.91;4883879;29;20049;-77
2021/01/17 09:06:13;;;;;;;6.35;3.67;;;;;;;-0.59;37.76;98919.75;4879843;29;20044;-77
2021/01/17 09:08:40;;;;;;;9.80;4.13;;;;;;;-0.62;37.03;98914.88;4880724;29;20041;-76
2021/01/17 09:14:48;;;;;;;6.50;3.60;;;;;;;-0.59;37.81;98907.41;5412310;23;20261;-80
2021/01/17 09:17:25;;;;;;;15.82;6.60;;;;;;;-0.54;38.72;98904.97;4895686;29;20394;-80
2021/01/17 09:20:15;;;;;;;13.13;4.07;;;;;;;-0.52;38.44;98907.41;4926181;29;20040;-80
2021/01/17 09:23:02;;;;;;;8.40;4.22;;;;;;;-0.43;38.33;98921.91;4897950;29;20405;-80
2021/01/17 09:28:51;;;;;;;8.70;3.42;;;;;;;-0.44;37.92;98922.13;4951990;28;20126;-80
2021/01/17 09:42:05;;;;;;;9.70;4.00;;;;;;;-0.50;38.34;98919.31;5473554;23;20099;-79
2021/01/17 09:44:32;;;;;;;6.30;3.57;;;;;;;-0.43;37.81;98914.03;4878246;29;20084;-78
2021/01/17 09:46:59;;;;;;;5.15;3.25;;;;;;;-0.40;37.77;98904.94;4879751;29;20119;-78
2021/01/17 09:49:26;;;;;;;9.48;4.45;;;;;;;-0.35;37.52;98903.28;4879620;29;20025;-76
2021/01/17 09:51:52;;;;;;;6.55;3.80;;;;;;;-0.29;37.88;98899.03;4880220;29;20168;-79
2021/01/17 09:56:54;;;;;;;10.85;4.95;;;;;;;-0.22;38.14;98893.72;5026353;23;20063;-80
2021/01/17 09:59:23;;;;;;;7.70;3.83;;;;;;;-0.16;37.81;98890.25;4900533;29;20043;-79
2021/01/17 10:02:04;;;;;;;8.07;3.60;;;;;;;-0.05;37.60;98894.06;4907977;29;20039;-80
2021/01/17 10:04:30;;;;;;;10.73;4.00;;;;;;;0.02;37.49;98878.25;4926945;29;20087;-78
2021/01/17 10:06:57;;;;;;;7.15;3.22;;;;;;;0.08;37.30;98869.53;4897616;29;20031;-77
2021/01/17 10:09:25;;;;;;;9.00;3.83;;;;;;;0.14;37.16;98874.72;4897102;29;20099;-76
2021/01/17 10:11:54;;;;;;;13.35;5.95;;;;;;;0.20;37.20;98875.72;4897813;29;20083;-77
2021/01/17 10:14:22;;;;;;;10.18;4.68;;;;;;;0.21;36.76;98868.63;4890133;29;20055;-79
2021/01/17 10:16:53;;;;;;;12.10;5.35;;;;;;;0.27;36.99;98870.41;4899048;29;20043;-76
2021/01/17 10:19:35;;;;;;;6.32;3.47;;;;;;;0.32;36.28;98867.97;4896380;29;20119;-77
2021/01/17 10:22:03;;;;;;;6.72;4.22;;;;;;;0.38;36.33;98863.66;4896643;29;20048;-79
2021/01/17 10:24:31;;;;;;;10.93;4.05;;;;;;;0.40;36.13;98864.25;4896326;29;20028;-77
2021/01/17 10:27:03;;;;;;;9.65;3.40;;;;;;;0.50;35.20;98867.22;4897254;29;20142;-77
2021/01/17 10:29:31;;;;;;;9.63;4.47;;;;;;;0.46;35.67;98856.31;4897465;29;20110;-77
2021/01/17 10:32:08;;;;;;;9.85;5.32;;;;;;;0.52;36.45;98865.16;4898079;29;20128;-77
2021/01/17 10:34:35;;;;;;;11.80;3.80;;;;;;;0.51;36.44;98865.38;4886400;29;20032;-78
2021/01/17 10:37:03;;;;;;;8.93;3.70;;;;;;;0.48;36.48;98858.72;4891782;29;20571;-77
2021/01/17 10:39:30;;;;;;;9.13;4.45;;;;;;;0.53;36.44;98861.53;4898268;29;20036;-77
2021/01/17 10:42:06;;;;;;;8.15;4.97;;;;;;;0.61;36.41;98855.19;4880095;29;20410;-78
2021/01/17 10:44:50;;;;;;;9.77;4.50;;;;;;;0.63;36.22;98856.59;4879885;29;20036;-78
2021/01/17 10:47:38;;;;;;;8.32;4.00;;;;;;;0.64;35.28;98860.81;4879814;29;20103;-77
2021/01/17 10:50:07;;;;;;;8.82;3.58;;;;;;;0.65;35.46;98856.38;4880008;29;20059;-77
2021/01/17 10:52:37;;;;;;;6.65;3.90;;;;;;;0.67;35.56;98858.78;4879525;29;20040;-77
2021/01/17 10:55:06;;;;;;;9.77;4.95;;;;;;;0.68;35.18;98852.50;4880203;29;20082;-77
2021/01/17 10:57:35;;;;;;;4.75;3.28;;;;;;;0.72;35.08;98858.94;4879987;29;20087;-78
2021/01/17 11:00:05;;;;;;;8.75;4.75;;;;;;;0.75;35.57;98863.78;4879983;29;20032;-77
2021/01/17 11:02:31;;;;;;;8.15;3.65;;;;;;;0.78;35.19;98864.16;4879648;29;20031;-77
2021/01/17 11:04:56;;;;;;;8.90;3.97;;;;;;;0.77;34.75;98854.63;4879958;29;20033;-77
2021/01/17 11:07:27;;;;;;;7.32;3.63;;;;;;;0.73;34.73;98860.53;4879400;29;20028;-77
2021/01/17 11:09:54;;;;;;;8.13;4.00;;;;;;;0.72;35.27;98864.19;4879848;29;20085;-77
2021/01/17 11:12:36;;;;;;;10.18;4.25;;;;;;;0.64;35.85;98858.19;4879324;29;20024;-77
2021/01/17 11:15:34;;;;;;;7.78;4.00;;;;;;;0.64;36.06;98857.38;4879574;29;20064;-77
2021/01/17 11:17:59;;;;;;;8.65;3.78;;;;;;;0.61;35.67;98853.38;4869141;29;20096;-77
2021/01/17 11:20:27;;;;;;;11.93;4.75;;;;;;;0.62;35.63;98851.53;4879196;29;20574;-77
2021/01/17 11:22:59;;;;;;;12.13;4.20;;;;;;;0.54;35.34;98862.31;4879463;29;20085;-78
2021/01/17 11:25:25;;;;;;;10.18;3.90;;;;;;;0.44;36.25;98854.91;4879258;29;20273;-77
2021/01/17 11:27:56;;;;;;;9.50;4.30;;;;;;;0.45;36.22;98861.78;4879415;29;20041;-77
2021/01/17 11:30:25;;;;;;;11.10;4.75;;;;;;;0.42;36.68;98870.91;4879248;29;20032;-77
2021/01/17 11:32:52;;;;;;;7.43;4.80;;;;;;;0.41;36.41;98863.25;4879424;29;20033;-77
2021/01/17 11:35:25;;;;;;;7.03;4.05;;;;;;;0.43;36.42;98861.22;4879211;29;20096;-77
2021/01/17 11:37:51;;;;;;;9.27;4.32;;;;;;;0.44;35.13;98862.78;4878894;29;20036;-77
2021/01/17 11:40:19;;;;;;;6.55;3.55;;;;;;;0.45;34.96;98848.63;4879050;29;20497;-77
2021/01/17 11:42:45;;;;;;;8.73;4.32;;;;;;;0.50;35.71;98856.72;4879288;29;20078;-77
2021/01/17 11:45:21;;;;;;;10.45;5.10;;;;;;;0.50;35.26;98840.91;4879397;29;20507;-77
2021/01/17 11:47:56;;;;;;;14.55;6.68;;;;;;;0.51;34.61;98849.59;4879352;29;20024;-77
2021/01/17 11:50:22;;;;;;;9.05;4.43;;;;;;;0.46;34.64;98844.97;4879297;29;20024;-77
2021/01/17 11:52:59;;;;;;;9.98;3.65;;;;;;;0.44;34.22;98847.84;4879208;29;20033;-77
2021/01/17 11:55:27;;;;;;;8.48;3.92;;;;;;;0.40;34.10;98846.63;4878936;29;20123;-77
2021/01/17 11:58:14;;;;;;;8.05;3.92;;;;;;;0.42;34.30;98851.69;4879215;29;20499;-77
2021/01/17 12:00:59;;;;;;;7.00;3.85;;;;;;;0.47;34.61;98844.75;4879101;29;20036;-77
2021/01/17 12:03:40;;;;;;;6.25;2.78;;;;;;;0.51;34.26;98831.97;4879147;29;20112;-77
2021/01/17 12:06:12;;;;;;;6.22;2.90;;;;;;;0.56;34.34;98833.97;4879709;29;20033;-77
2021/01/17 12:08:50;;;;;;;6.88;3.45;;;;;;;0.60;34.59;98830.69;4879628;29;20449;-77
2021/01/17 12:11:37;;;;;;;8.10;3.15;;;;;;;0.61;33.70;98816.53;4880629;29;20032;-77